Portada
METAR-TAF:

METAR-TAF

Aeropuertos :

Mécheria, Argelia

latitud: 34-56N, longitud: 000-26W, altitud: 1149 m

Observación

El informe se hizo hace 1 hora y 0 minutos, a las 04:00 UTC
Viento 6 kt del sur-suroeste
Temperatura 27°C
Humedad 26%
Presión 1023 hPa
Visibilidad: 7000 m
Nubes dispersas a una altura de 3000 ft

METAR: DAAY 300400Z 21006KT 7000 SCT030 27/06 Q1023

Hora: 06:00 (05:00 UTC)

Pronóstico

El informe se hizo hace 3 horas y 0 minutos, a las 02:00 UTC
Pronóstico válido del 30 a las 03 UTC al 30 a las 12 UTC
Viento 10 kt del norte-noroeste
Visibilidad: 7000 m
Nubes dispersas a una altura de 3000 ft
Evolucionando progresivamente
del 30 a las 06 UTC al 30 a las 09 UTC
Viento 15 kt del sur-suroeste

TAF: DAAY 300200Z 3003/3012 33010KT 7000 SCT030 BECMG 3006/3009 21015KT

Observaciones y pronósticos meteorológicos de más de 4000 aeropuertos (mensajes METAR y TAF).

Los puntos amarillos y rojos representan las estaciones disponibles.

Ponga el ratón en el punto deseado para ver el nombre de la estación.

Haga clic para ver las observaciones y los pronósticos meteorológicos.

Para cambiar el mapa : haga clic en los botones verdes con una cruz de color negro para hacer un zoom, en el botón verde con un guión para alejar o en las flechas verdes para mapas adyacentes.


METAR-TAF: